Terminal Aerodrome Forecast
Issued by NWS

Home | Current Version | Previous Version | Text Only | Print | Product List | Glossary Off
Versions: 1 2 3 4 5 6 7 8 9 10 11 12 13 14 15 16 17 18 19 20 21 22 23 24

000
FTUS43 KABR 070208 AAB
TAFMBG
TAF AMD
KMBG 070208Z 0702/0724 18010KT P6SM -SHRA BKN015 OVC035
     FM070400 16008KT 3SM BR OVC009
     FM070800 29014KT 5SM BR OVC015
     FM071200 32016KT P6SM OVC015
     FM072100 32015KT P6SM OVC035=

USA.gov is the U.S. government's official web portal to all federal, state and local government web resources and services.